Aeroporto :







RITROVATECI SU...

 
LOGIN :

Iscrizione | Disclaimer

   EN    FR    IT 

 









Sommario :    VFR   VFR Marginale   IFR   IFR Intensivo   IFR Molto Intensivo
Visibilità : 
Base nubi : 
>= 8 km
>= 3000ft
5 / 8 km
1000 / 3000 ft
1500m / 5 km
500 / 1000 ft
800 / 1500m
200 / 500 ft
< 800m
< 200 ft
Simboli :   Temporali  Nebbia  Neve Forte  Precipitazioni Forti  Vento > 20 kt






- Altitudine del aeroporto : 550 ft
- Codice IATA : YOY


CYOY - C J.H.L.(Joe) Lecomte) Heliport

ULTIMO METAR :
  • 092000Z AUTO 22005KT 200V270 9SM FEW040 FEW057 FEW083 30/ A2992 RMK SLP130

METARs OBSOLETI :
  • 091900Z AUTO 24009G15KT 200V260 9SM FEW045 FEW056 FEW099 30/13 A2993 RMK SLP133
  • 091800Z AUTO 24006KT 190V290 9SM FEW033 FEW043 FEW068 30/ A2991 RMK SLP129

TAF TAF CYOY
Valido dal 09 a 18 ore il 10 a 06 ore UTC


091730Z 0918/1006 24006KT P6SM FEW080
TEMPO 0918/0923 P6SM -SHRA VCTS BKN080CB
PROB40 0918/0923 VRB20G35KT 1SM +TSRAGR BR OVC040CB
FM100000 VRB03KT P6SM SCT040 RMK FCST BASED ON AUTO OBS. NXT FCST BY 100000Z
FIR CZUL / America del Nord



MetMap, La meteo Aeronautica in un colpo d'occhio ! - Copyright ORBIFLY Dicembre 2007 - Disclaimer

ORBIFLY MET'MAP TEAM :

Programmazione e sviluppo : Alexandra Zaïnal
Concezione : Baudouin d'Aumeries
Aiuto per la programmazione : Marc-Olivier Méhu
Supporto tecnico e logistico : Manuel Goepfert
Aiuto per la traduzione : Arnaldo La Scala

Contatto : metmap@orbifly.com




FONTI E CREDITI :

   NOAA